Terminal Aerodrome Forecast
Issued by NWS

Home | Current Version | Previous Version | Text Only | Print | Product List | Glossary On
Versions: 1 2 3 4 5 6 7 8 9 10 11 12 13 14 15 16
000
FTUS43 KOAX 112300
TAFCDR
TAF
KCDR 112339Z 1200/1224 09010G20KT P6SM VCTS BKN060CB
      TEMPO 1200/1202 VRB25G40KT 2SM TSRA BKN035CB
     FM120200 05010G20KT P6SM BKN050
     FM120600 28006KT P6SM BKN080
     FM120800 24006KT 1SM BR OVC015
     FM121500 02010KT P6SM BKN045
     FM122000 05010G20KT P6SM VCTS BKN050CB=

USA.gov is the U.S. government's official web portal to all federal, state and local government web resources and services.